Time;durP1;ratioP1;P1;durP2;ratioP2;P2;SDS_P1;SDS_P2;PMS_P1;PMS_P2;Temp;Humidity;BMP_temperature;BMP_pressure;BME280_temperature;BME280_humidity;BME280_pressure;Samples;Min_cycle;Max_cycle;Signal;HPM_P1;HPM_P2
2023/07/12 00:01:36;;;;;;;6.00;3.80;;;19.80;99.90;;;;;;5034644;28;20434;-48
2023/07/12 00:04:02;;;;;;;6.18;4.10;;;19.70;99.90;;;;;;5032473;28;20045;-47
2023/07/12 00:06:36;;;;;;;8.02;4.20;;;19.70;99.90;;;;;;5023473;28;20400;-48
2023/07/12 00:09:02;;;;;;;;;;;19.60;99.90;;;;;;5005076;28;20049;-49
2023/07/12 00:11:28;;;;;;;6.28;4.20;;;19.50;99.90;;;;;;5023503;28;19983;-48
2023/07/12 00:13:55;;;;;;;7.97;4.53;;;19.40;99.90;;;;;;5023806;28;20089;-48
2023/07/12 00:16:27;;;;;;;7.82;4.53;;;19.50;99.90;;;;;;5004764;28;20041;-48
2023/07/12 00:18:54;;;;;;;7.40;4.75;;;19.40;99.90;;;;;;5023343;28;20049;-47
2023/07/12 00:21:23;;;;;;;8.55;4.97;;;19.50;99.90;;;;;;5022949;28;20124;-49
2023/07/12 00:23:52;;;;;;;8.63;5.22;;;19.40;99.90;;;;;;5021955;28;20061;-47
2023/07/12 00:26:21;;;;;;;8.23;5.30;;;19.40;99.90;;;;;;5023289;28;20041;-50
2023/07/12 00:28:47;;;;;;;9.52;5.00;;;19.30;99.90;;;;;;5023539;28;20045;-51
2023/07/12 00:31:12;;;;;;;8.40;5.32;;;19.30;99.90;;;;;;5023188;28;20037;-52
2023/07/12 00:33:38;;;;;;;6.82;5.72;;;19.30;99.90;;;;;;5022763;28;20057;-50
2023/07/12 00:36:12;;;;;;;7.55;5.30;;;19.30;99.90;;;;;;5022759;28;20409;-48
2023/07/12 00:38:38;;;;;;;9.52;5.82;;;19.30;99.90;;;;;;5022924;28;20111;-51
2023/07/12 00:41:15;;;;;;;9.48;5.63;;;19.20;99.90;;;;;;5021766;28;20038;-49
2023/07/12 00:43:46;;;;;;;7.03;5.60;;;19.20;99.90;;;;;;5022866;28;20118;-48
2023/07/12 00:46:32;;;;;;;6.80;5.45;;;19.20;99.90;;;;;;5021321;28;20207;-49
2023/07/12 00:48:58;;;;;;;7.40;5.30;;;19.10;99.90;;;;;;5022770;28;20045;-51
2023/07/12 00:51:36;;;;;;;6.85;5.00;;;19.10;99.90;;;;;;5022861;28;20045;-48
2023/07/12 00:54:13;;;;;;;6.75;4.85;;;19.10;99.90;;;;;;5022380;28;20125;-48
2023/07/12 00:56:39;;;;;;;8.13;4.75;;;19.10;99.90;;;;;;5022363;28;20060;-49
2023/07/12 00:59:11;;;;;;;8.32;4.95;;;19.10;99.90;;;;;;5021947;28;20238;-49
2023/07/12 01:01:37;;;;;;;7.53;5.00;;;19.10;99.90;;;;;;5022413;28;20057;-49
2023/07/12 01:04:03;;;;;;;6.03;4.88;;;19.00;99.90;;;;;;5107433;23;20053;-52
2023/07/12 01:06:30;;;;;;;6.68;4.35;;;19.10;99.90;;;;;;5041574;28;20459;-48
2023/07/12 01:09:01;;;;;;;7.80;4.60;;;19.10;99.90;;;;;;5029413;28;20060;-51
2023/07/12 01:11:28;;;;;;;6.25;4.57;;;19.10;99.90;;;;;;5043540;28;20503;-48
2023/07/12 01:13:54;;;;;;;5.75;4.25;;;19.10;99.90;;;;;;5041597;28;20077;-51
2023/07/12 01:16:22;;;;;;;6.88;4.55;;;19.10;99.90;;;;;;5024229;28;20102;-52
2023/07/12 01:18:48;;;;;;;8.43;4.85;;;19.10;99.90;;;;;;5042673;28;20076;-49
2023/07/12 01:21:17;;;;;;;7.38;4.40;;;19.10;99.90;;;;;;5036803;28;20045;-49
2023/07/12 01:23:44;;;;;;;6.53;4.30;;;19.00;99.90;;;;;;5021635;28;20132;-51
2023/07/12 01:26:21;;;;;;;7.80;4.40;;;19.10;99.90;;;;;;5022722;28;20427;-49
2023/07/12 01:28:50;;;;;;;6.35;4.75;;;19.10;99.90;;;;;;5037289;28;20124;-48
2023/07/12 01:31:16;;;;;;;7.53;4.03;;;19.00;99.90;;;;;;5022439;28;20063;-48
2023/07/12 01:33:42;;;;;;;6.35;4.18;;;19.00;99.90;;;;;;5032020;28;20424;-49
2023/07/12 01:36:08;;;;;;;8.63;4.60;;;19.00;99.90;;;;;;5041690;28;20112;-50
2023/07/12 01:38:33;;;;;;;6.30;4.07;;;18.90;99.90;;;;;;5040353;28;20446;-49
2023/07/12 01:40:59;;;;;;;6.63;4.22;;;18.90;99.90;;;;;;5041748;28;20329;-49
2023/07/12 01:43:24;;;;;;;6.68;4.70;;;18.90;99.90;;;;;;5042178;28;20102;-49
2023/07/12 01:45:50;;;;;;;6.20;4.75;;;18.90;99.90;;;;;;5041578;28;20507;-51
2023/07/12 01:48:16;;;;;;;6.85;4.47;;;18.80;99.90;;;;;;5042004;28;20049;-51
2023/07/12 01:50:41;;;;;;;5.75;4.10;;;18.70;99.90;;;;;;5042000;28;20495;-50
2023/07/12 01:53:08;;;;;;;5.97;4.22;;;18.70;99.90;;;;;;5041435;28;20089;-49
2023/07/12 01:55:34;;;;;;;6.68;4.07;;;18.70;99.90;;;;;;5031761;28;20128;-49
2023/07/12 01:58:00;;;;;;;7.50;4.38;;;18.70;99.90;;;;;;5022820;28;20115;-49
2023/07/12 02:00:26;;;;;;;6.80;4.00;;;18.70;99.90;;;;;;5022099;28;20045;-51
2023/07/12 02:02:51;;;;;;;6.20;4.13;;;18.60;99.90;;;;;;5020867;28;20033;-51
2023/07/12 02:05:18;;;;;;;7.25;4.47;;;18.60;99.90;;;;;;5021769;28;20050;-48
2023/07/12 02:07:44;;;;;;;6.28;4.32;;;18.60;99.90;;;;;;5021622;28;20037;-49
2023/07/12 02:10:16;;;;;;;9.57;4.47;;;18.50;99.90;;;;;;5020838;28;20365;-50
2023/07/12 02:12:42;;;;;;;5.70;4.35;;;18.50;99.90;;;;;;5021270;28;20408;-48
2023/07/12 02:15:10;;;;;;;7.32;4.80;;;18.50;99.90;;;;;;5021276;28;20400;-51
2023/07/12 02:17:36;;;;;;;6.85;3.90;;;18.50;99.90;;;;;;5021612;28;20045;-48
2023/07/12 02:20:03;;;;;;;7.60;4.40;;;18.60;99.90;;;;;;5020494;28;20506;-48
2023/07/12 02:22:30;;;;;;;6.30;4.45;;;18.40;99.90;;;;;;5021370;28;20419;-50
2023/07/12 02:24:56;;;;;;;7.22;4.40;;;18.30;99.90;;;;;;5020359;28;20250;-49
2023/07/12 02:27:22;;;;;;;9.65;4.63;;;18.30;99.90;;;;;;5021238;28;20054;-52
2023/07/12 02:29:48;;;;;;;7.22;4.47;;;18.20;99.90;;;;;;5021438;28;20416;-50
2023/07/12 02:32:13;;;;;;;10.60;3.92;;;18.20;99.90;;;;;;5021802;28;20519;-50
2023/07/12 02:34:39;;;;;;;7.88;4.35;;;18.30;99.90;;;;;;5020871;28;20053;-53
2023/07/12 02:37:04;;;;;;;7.05;4.72;;;18.40;99.90;;;;;;5020651;28;20044;-48
2023/07/12 02:39:30;;;;;;;9.02;4.25;;;18.20;99.90;;;;;;5020343;28;20400;-53
2023/07/12 02:41:56;;;;;;;8.75;4.55;;;18.30;99.90;;;;;;5020645;28;20042;-49
2023/07/12 02:44:21;;;;;;;6.97;4.43;;;18.30;99.90;;;;;;5021078;28;20048;-50
2023/07/12 02:46:47;;;;;;;6.93;4.70;;;18.20;99.90;;;;;;5035905;28;20120;-50
2023/07/12 02:49:13;;;;;;;7.93;4.32;;;18.20;99.90;;;;;;5020704;28;20064;-50
2023/07/12 02:51:39;;;;;;;8.48;5.18;;;18.20;99.90;;;;;;5020648;28;20053;-49
2023/07/12 02:54:05;;;;;;;8.55;4.93;;;18.20;99.90;;;;;;5019486;28;20403;-48
2023/07/12 02:56:30;;;;;;;8.27;4.57;;;18.20;99.90;;;;;;5020710;28;20041;-50
2023/07/12 02:58:56;;;;;;;8.40;4.68;;;18.20;99.90;;;;;;5020573;28;20038;-51
2023/07/12 03:01:24;;;;;;;8.95;4.82;;;17.70;99.90;;;;;;5021133;28;20048;-50
2023/07/12 03:03:52;;;;;;;9.15;5.03;;;18.10;99.90;;;;;;5020725;28;20053;-51
2023/07/12 03:06:19;;;;;;;11.05;5.07;;;18.10;99.90;;;;;;5020738;28;20482;-48
2023/07/12 03:08:44;;;;;;;7.85;4.82;;;18.00;99.90;;;;;;5020301;28;20041;-50
2023/07/12 03:11:10;;;;;;;5.90;4.70;;;18.00;99.90;;;;;;5019486;28;20128;-49
2023/07/12 03:13:36;;;;;;;11.88;4.10;;;18.10;99.90;;;;;;5020269;28;20128;-49
2023/07/12 03:16:06;;;;;;;8.88;4.47;;;18.10;99.90;;;;;;5020562;28;20034;-49
2023/07/12 03:18:32;;;;;;;11.02;4.88;;;18.00;99.90;;;;;;5019806;28;20060;-48
2023/07/12 03:20:59;;;;;;;12.63;4.72;;;18.00;99.90;;;;;;5020389;28;20045;-49
2023/07/12 03:23:25;;;;;;;9.13;4.20;;;17.90;99.90;;;;;;5019900;28;20045;-52
2023/07/12 03:25:51;;;;;;;12.63;4.40;;;17.90;99.90;;;;;;5020272;28;20120;-47
2023/07/12 03:28:16;;;;;;;8.45;4.25;;;17.90;99.90;;;;;;5001865;28;20218;-50
2023/07/12 03:30:42;;;;;;;11.15;4.80;;;17.90;99.90;;;;;;5020187;28;20045;-48
2023/07/12 03:33:08;;;;;;;6.95;4.10;;;17.90;99.90;;;;;;5002845;28;20485;-48
2023/07/12 03:35:34;;;;;;;8.50;3.75;;;18.00;99.90;;;;;;5019478;28;20045;-52
2023/07/12 03:37:59;;;;;;;10.65;4.10;;;17.90;99.90;;;;;;5020478;28;20599;-51
2023/07/12 03:40:25;;;;;;;9.13;4.47;;;18.00;99.90;;;;;;5019656;28;20044;-51
2023/07/12 03:42:50;;;;;;;7.68;3.58;;;18.00;99.90;;;;;;5020041;28;20037;-50
2023/07/12 03:45:16;;;;;;;10.18;3.97;;;17.90;99.90;;;;;;5019524;28;20330;-48
2023/07/12 03:47:42;;;;;;;12.70;4.97;;;17.80;99.90;;;;;;5020512;28;20044;-48
2023/07/12 03:50:08;;;;;;;9.52;4.50;;;17.80;99.90;;;;;;5020524;28;20057;-48
2023/07/12 03:52:33;;;;;;;8.18;4.00;;;17.80;99.90;;;;;;5019285;28;20041;-48
2023/07/12 03:54:59;;;;;;;9.90;4.45;;;17.70;99.90;;;;;;5019079;28;20045;-49
2023/07/12 03:57:25;;;;;;;11.80;4.82;;;17.80;99.90;;;;;;5020587;28;20041;-52
2023/07/12 03:59:51;;;;;;;12.50;5.40;;;17.70;99.90;;;;;;5002480;28;20056;-49
2023/07/12 04:02:16;;;;;;;12.25;4.65;;;17.50;99.90;;;;;;5002183;28;20451;-50
2023/07/12 04:04:42;;;;;;;12.25;4.90;;;17.50;99.90;;;;;;5019991;28;20452;-48
2023/07/12 04:07:08;;;;;;;9.38;4.55;;;17.50;99.90;;;;;;5019944;28;20060;-47
2023/07/12 04:09:33;;;;;;;11.13;4.47;;;17.50;99.90;;;;;;5019216;28;20041;-50
2023/07/12 04:11:59;;;;;;;12.57;5.22;;;17.50;99.90;;;;;;5019540;28;20038;-52
2023/07/12 04:14:25;;;;;;;12.73;4.85;;;17.40;99.90;;;;;;5002275;28;20575;-48
2023/07/12 04:16:50;;;;;;;11.93;4.78;;;17.50;99.90;;;;;;5019835;28;20573;-50
2023/07/12 04:19:16;;;;;;;9.73;4.75;;;17.50;99.90;;;;;;5001688;28;20132;-49
2023/07/12 04:21:41;;;;;;;12.63;5.10;;;17.50;99.90;;;;;;5021890;28;20069;-51
2023/07/12 04:24:07;;;;;;;12.02;5.28;;;17.60;99.90;;;;;;5023163;28;20049;-48
2023/07/12 04:26:33;;;;;;;11.20;4.82;;;17.60;99.90;;;;;;5023274;28;20038;-49
2023/07/12 04:28:58;;;;;;;11.90;5.00;;;17.50;99.90;;;;;;5005309;28;20048;-51
2023/07/12 04:31:24;;;;;;;10.27;4.53;;;17.50;99.90;;;;;;5005435;28;20576;-50
2023/07/12 04:33:50;;;;;;;10.10;4.57;;;17.50;99.90;;;;;;5023510;28;20090;-52
2023/07/12 04:36:17;;;;;;;9.25;4.82;;;17.60;99.90;;;;;;5023185;28;20065;-49
2023/07/12 04:38:44;;;;;;;9.63;4.65;;;17.60;99.90;;;;;;5022786;28;20053;-48
2023/07/12 04:41:09;;;;;;;14.07;5.57;;;17.50;99.90;;;;;;5005464;28;20056;-48
2023/07/12 04:43:35;;;;;;;9.32;5.18;;;17.60;99.90;;;;;;5022803;28;20042;-51
2023/07/12 04:46:01;;;;;;;14.15;6.38;;;17.60;99.90;;;;;;5022701;28;20064;-47
2023/07/12 04:48:27;;;;;;;13.57;6.35;;;17.50;99.90;;;;;;5023626;28;20683;-48
2023/07/12 04:50:54;;;;;;;13.48;6.25;;;17.70;99.90;;;;;;5023232;28;20037;-48
2023/07/12 04:53:21;;;;;;;13.45;6.00;;;17.60;99.90;;;;;;5022252;28;20295;-50
2023/07/12 04:55:47;;;;;;;14.07;6.18;;;17.60;99.90;;;;;;5023035;28;20107;-52
2023/07/12 04:58:13;;;;;;;12.13;5.80;;;17.50;99.90;;;;;;5022906;28;20484;-48
2023/07/12 05:00:39;;;;;;;13.40;5.82;;;17.50;99.90;;;;;;5022825;28;20080;-51
2023/07/12 05:03:05;;;;;;;11.70;5.80;;;17.60;99.90;;;;;;5022093;28;20052;-53
2023/07/12 05:05:31;;;;;;;14.07;5.63;;;17.70;99.90;;;;;;5022679;28;20049;-48
2023/07/12 05:07:57;;;;;;;15.32;5.70;;;17.60;99.90;;;;;;5022281;28;20084;-49
2023/07/12 05:10:22;;;;;;;12.60;6.20;;;17.50;99.90;;;;;;5021536;28;20455;-49
2023/07/12 05:12:48;;;;;;;12.77;6.53;;;17.50;99.90;;;;;;5022527;28;20068;-49
2023/07/12 05:15:14;;;;;;;12.95;6.30;;;17.50;99.90;;;;;;5023334;28;20120;-51
2023/07/12 05:17:40;;;;;;;11.23;6.28;;;17.50;99.90;;;;;;5023006;28;20384;-50
2023/07/12 05:20:09;;;;;;;15.88;6.78;;;17.50;99.90;;;;;;5021774;28;20057;-49
2023/07/12 05:22:35;;;;;;;13.82;6.43;;;17.50;99.90;;;;;;5022501;28;20060;-47
2023/07/12 05:25:00;;;;;;;15.00;7.40;;;17.40;99.90;;;;;;5021955;28;20053;-47
2023/07/12 05:27:26;;;;;;;13.50;6.53;;;17.40;99.90;;;;;;5021738;28;20596;-50
2023/07/12 05:29:52;;;;;;;10.23;5.55;;;17.40;99.90;;;;;;5022243;28;20415;-49
2023/07/12 05:32:19;;;;;;;14.70;6.47;;;17.40;99.90;;;;;;5004138;28;20495;-49
2023/07/12 05:34:45;;;;;;;14.15;6.55;;;17.40;99.90;;;;;;5022112;28;20068;-48
2023/07/12 05:37:10;;;;;;;13.90;6.50;;;17.20;99.90;;;;;;5003563;28;20041;-49
2023/07/12 05:39:36;;;;;;;12.23;5.55;;;17.20;99.90;;;;;;5003865;28;20373;-47
2023/07/12 05:42:03;;;;;;;12.10;6.20;;;17.20;99.90;;;;;;5004407;28;20038;-47
2023/07/12 05:44:28;;;;;;;18.25;6.45;;;17.10;99.90;;;;;;5021001;28;20038;-47
2023/07/12 05:46:54;;;;;;;14.43;6.47;;;17.20;99.90;;;;;;5021835;28;20987;-51
2023/07/12 05:49:20;;;;;;;12.60;6.80;;;17.10;99.90;;;;;;5021695;28;20561;-48
2023/07/12 05:51:46;;;;;;;12.63;6.75;;;17.10;99.90;;;;;;5021995;28;20128;-49
2023/07/12 05:54:12;;;;;;;16.05;6.80;;;17.00;99.90;;;;;;5027491;28;20087;-48
2023/07/12 05:56:38;;;;;;;14.18;6.85;;;17.10;99.90;;;;;;5032630;28;20073;-51
2023/07/12 05:59:04;;;;;;;17.17;7.05;;;17.10;99.90;;;;;;5004230;28;20435;-49
2023/07/12 06:01:30;;;;;;;14.95;6.68;;;17.20;99.90;;;;;;5020833;28;20038;-49
2023/07/12 06:03:55;;;;;;;12.20;6.20;;;17.40;99.90;;;;;;5027782;28;20600;-47
2023/07/12 06:06:21;;;;;;;14.07;6.75;;;17.50;99.90;;;;;;5026359;28;20046;-52
2023/07/12 06:08:47;;;;;;;12.48;6.07;;;17.70;99.90;;;;;;5020917;28;20046;-48
2023/07/12 06:11:13;;;;;;;11.68;5.65;;;18.30;99.90;;;;;;5020558;28;20084;-49
2023/07/12 06:13:39;;;;;;;10.68;6.13;;;18.40;99.90;;;;;;5021602;28;20043;-47
2023/07/12 06:16:05;;;;;;;15.18;6.55;;;18.20;99.90;;;;;;5022271;28;20114;-47
2023/07/12 06:18:31;;;;;;;16.48;6.80;;;18.00;99.90;;;;;;5021113;28;20053;-48
2023/07/12 06:20:59;;;;;;;14.63;7.03;;;17.80;99.90;;;;;;5021023;28;20492;-48
2023/07/12 06:23:25;;;;;;;16.40;7.57;;;17.70;99.90;;;;;;5020432;28;20053;-48
2023/07/12 06:25:51;;;;;;;16.20;6.65;;;17.70;99.90;;;;;;5021152;28;20490;-49
2023/07/12 06:28:17;;;;;;;14.73;7.00;;;17.60;99.90;;;;;;5021028;28;20046;-48
2023/07/12 06:30:43;;;;;;;14.55;7.50;;;17.60;99.90;;;;;;5021572;28;20124;-48
2023/07/12 06:33:10;;;;;;;14.70;7.57;;;17.70;99.90;;;;;;5021291;28;20408;-49
2023/07/12 06:35:36;;;;;;;19.67;7.13;;;17.60;99.90;;;;;;5020868;28;20048;-49
2023/07/12 06:38:01;;;;;;;18.13;7.47;;;17.70;99.90;;;;;;5020078;28;20423;-48
2023/07/12 06:40:27;;;;;;;18.67;7.88;;;17.90;99.90;;;;;;5020790;28;20046;-50
2023/07/12 06:42:52;;;;;;;19.60;7.78;;;18.10;99.90;;;;;;5020486;28;20128;-49
2023/07/12 06:45:18;;;;;;;14.15;7.35;;;18.40;99.90;;;;;;5019191;28;20053;-48
2023/07/12 06:47:44;;;;;;;17.42;7.70;;;18.60;99.90;;;;;;5021454;28;20046;-45
2023/07/12 06:50:09;;;;;;;13.25;6.88;;;18.70;99.90;;;;;;5020967;28;20420;-47
2023/07/12 06:52:35;;;;;;;13.05;6.95;;;18.80;99.90;;;;;;5020496;28;20218;-46
2023/07/12 06:55:01;;;;;;;20.48;7.65;;;19.00;99.90;;;;;;5019400;28;20107;-44
2023/07/12 06:57:26;;;;;;;12.75;6.72;;;19.20;99.90;;;;;;5020664;28;20056;-45
2023/07/12 06:59:52;;;;;;;12.82;6.43;;;19.50;99.90;;;;;;5020715;28;20455;-46
2023/07/12 07:02:18;;;;;;;15.18;5.72;;;20.00;99.90;;;;;;5019911;28;20614;-49
2023/07/12 07:04:44;;;;;;;13.30;5.90;;;20.00;99.90;;;;;;5020906;28;20060;-49
2023/07/12 07:07:09;;;;;;;13.50;6.03;;;19.60;99.90;;;;;;5020789;28;20491;-54
2023/07/12 07:09:38;;;;;;;13.95;6.60;;;19.10;99.90;;;;;;5019914;28;20043;-49
2023/07/12 07:12:07;;;;;;;15.75;6.45;;;18.80;99.90;;;;;;5020408;28;20041;-51
2023/07/12 07:14:33;;;;;;;13.63;6.50;;;18.60;99.90;;;;;;5020502;28;20111;-50
2023/07/12 07:16:58;;;;;;;15.25;6.68;;;18.30;99.90;;;;;;5020362;28;20527;-50
2023/07/12 07:19:24;;;;;;;13.68;6.15;;;18.30;99.90;;;;;;5002141;28;20092;-52
2023/07/12 07:21:50;;;;;;;14.82;6.28;;;18.60;99.90;;;;;;5020268;28;20318;-52
2023/07/12 07:24:17;;;;;;;12.23;5.32;;;18.90;99.90;;;;;;5019536;28;20041;-51
2023/07/12 07:26:43;;;;;;;10.63;5.60;;;18.90;99.90;;;;;;5019895;28;20037;-51
2023/07/12 07:29:09;;;;;;;13.48;5.43;;;18.80;99.90;;;;;;5020757;28;20467;-50
2023/07/12 07:31:35;;;;;;;11.20;5.65;;;18.80;99.90;;;;;;5020778;28;20046;-50
2023/07/12 07:34:01;;;;;;;13.10;5.68;;;19.00;99.90;;;;;;5020030;28;20262;-49
2023/07/12 07:36:26;;;;;;;12.02;5.85;;;19.20;99.90;;;;;;5019425;28;20496;-50
2023/07/12 07:38:52;;;;;;;15.70;6.78;;;19.30;99.90;;;;;;5019118;28;20055;-50
2023/07/12 07:41:18;;;;;;;13.20;6.22;;;19.30;99.90;;;;;;5020482;28;20042;-50
2023/07/12 07:43:44;;;;;;;11.55;5.43;;;19.20;99.90;;;;;;5020243;28;20041;-51
2023/07/12 07:46:14;;;;;;;13.05;5.78;;;19.10;99.90;;;;;;5020842;28;20049;-50
2023/07/12 07:48:39;;;;;;;11.95;5.43;;;19.00;99.90;;;;;;5020716;28;20041;-50
2023/07/12 07:51:10;;;;;;;12.70;5.28;;;19.00;99.90;;;;;;5020213;28;20119;-53
2023/07/12 07:53:36;;;;;;;11.75;5.25;;;19.10;99.90;;;;;;5019036;28;20443;-52
2023/07/12 07:56:01;;;;;;;13.52;5.38;;;19.10;99.90;;;;;;5045362;28;20053;-52
2023/07/12 07:58:27;;;;;;;11.80;4.50;;;19.10;99.90;;;;;;5036405;28;20435;-51
2023/07/12 08:00:53;;;;;;;11.45;4.45;;;19.50;99.90;;;;;;5043038;28;20036;-50
2023/07/12 08:03:19;;;;;;;11.90;4.18;;;19.70;99.90;;;;;;5025715;28;20109;-50
2023/07/12 08:05:45;;;;;;;15.90;4.90;;;20.00;99.90;;;;;;5043594;28;20533;-51
2023/07/12 08:08:11;;;;;;;12.43;4.45;;;20.30;99.90;;;;;;5043437;28;20041;-50
2023/07/12 08:10:37;;;;;;;10.88;4.13;;;20.40;99.90;;;;;;5043653;28;20140;-50
2023/07/12 08:13:03;;;;;;;9.90;4.40;;;20.50;99.90;;;;;;5040155;28;20128;-53
2023/07/12 08:15:29;;;;;;;12.77;4.72;;;20.50;99.90;;;;;;5041245;28;20033;-50
2023/07/12 08:17:55;;;;;;;9.85;3.90;;;20.70;99.90;;;;;;5038944;28;20111;-49
2023/07/12 08:20:22;;;;;;;10.25;4.10;;;20.80;99.90;;;;;;5040564;28;20037;-50
2023/07/12 08:22:49;;;;;;;9.43;4.70;;;20.80;99.90;;;;;;5041988;28;20060;-49
2023/07/12 08:25:14;;;;;;;12.18;4.55;;;20.70;99.90;;;;;;5043062;28;20055;-53
2023/07/12 08:27:40;;;;;;;11.65;4.03;;;20.70;99.90;;;;;;5043381;28;20135;-50
2023/07/12 08:30:07;;;;;;;10.90;3.72;;;20.70;99.90;;;;;;5043475;28;20082;-50
2023/07/12 08:32:33;;;;;;;10.73;4.32;;;20.70;99.90;;;;;;5025700;28;20088;-50
2023/07/12 08:35:00;;;;;;;10.70;4.20;;;20.50;99.90;;;;;;5042640;28;20407;-51
2023/07/12 08:37:27;;;;;;;9.45;4.05;;;20.30;99.90;;;;;;5042419;28;20055;-50
2023/07/12 08:39:52;;;;;;;11.43;4.65;;;20.00;99.90;;;;;;5043100;28;20037;-50
2023/07/12 08:42:22;;;;;;;12.85;4.80;;;19.70;99.90;;;;;;5024766;28;20049;-52
2023/07/12 08:44:48;;;;;;;14.63;4.93;;;19.60;99.90;;;;;;5042503;28;20221;-49
2023/07/12 08:47:26;;;;;;;10.35;5.20;;;19.50;99.90;;;;;;5041067;28;20251;-48
2023/07/12 08:49:51;;;;;;;12.45;5.32;;;19.40;99.90;;;;;;5020787;28;20041;-50
2023/07/12 08:52:22;;;;;;;13.52;5.80;;;19.30;99.90;;;;;;5040262;28;20384;-48
2023/07/12 08:54:49;;;;;;;9.07;5.00;;;19.40;99.90;;;;;;5040544;28;20037;-49
2023/07/12 08:57:21;;;;;;;12.32;4.60;;;19.60;99.90;;;;;;5042940;28;20133;-52
2023/07/12 09:00:10;;;;;;;9.82;4.88;;;19.70;99.90;;;;;;5041270;28;20446;-53
2023/07/12 09:02:36;;;;;;;9.43;4.88;;;19.60;99.90;;;;;;5023326;28;20048;-50
2023/07/12 09:05:14;;;;;;;11.82;4.97;;;19.40;99.90;;;;;;5004752;28;20061;-49
2023/07/12 09:07:47;;;;;;;13.93;5.93;;;19.30;99.90;;;;;;5021505;28;20056;-51
2023/07/12 09:10:30;;;;;;;13.13;5.60;;;19.20;99.90;;;;;;5021910;28;20091;-50
2023/07/12 09:12:59;;;;;;;10.32;4.82;;;19.20;99.90;;;;;;5022440;28;20042;-51
2023/07/12 09:15:32;;;;;;;15.25;5.47;;;19.10;99.90;;;;;;5021888;28;20206;-51
2023/07/12 09:17:58;;;;;;;11.07;4.88;;;19.20;99.90;;;;;;5022127;28;20636;-49
2023/07/12 09:20:27;;;;;;;11.57;4.70;;;19.20;99.90;;;;;;5022218;28;20381;-50
2023/07/12 09:22:54;;;;;;;12.13;5.38;;;19.20;99.90;;;;;;5020520;28;20120;-51
2023/07/12 09:25:25;;;;;;;13.02;5.93;;;19.10;99.90;;;;;;5022240;28;20302;-51
2023/07/12 09:27:51;;;;;;;13.15;4.90;;;19.20;99.90;;;;;;5022202;28;20455;-52
2023/07/12 09:30:22;;;;;;;13.48;5.47;;;19.20;99.90;;;;;;5022142;28;20108;-51
2023/07/12 09:32:49;;;;;;;12.98;5.00;;;19.40;99.90;;;;;;5022668;28;20478;-51
2023/07/12 09:35:45;;;;;;;10.07;5.00;;;19.40;99.90;;;;;;5004864;28;20037;-51
2023/07/12 09:38:17;;;;;;;14.75;5.00;;;19.50;99.90;;;;;;5020082;28;20053;-50
2023/07/12 09:40:48;;;;;;;11.27;5.30;;;19.30;99.90;;;;;;5022171;28;20081;-49
2023/07/12 09:43:23;;;;;;;12.43;4.88;;;19.60;99.90;;;;;;5021531;28;20038;-50
2023/07/12 09:45:51;;;;;;;12.07;4.70;;;19.90;99.90;;;;;;5022388;28;20236;-49
2023/07/12 09:48:30;;;;;;;13.45;4.95;;;19.90;99.90;;;;;;5004635;28;20076;-52
2023/07/12 09:51:14;;;;;;;10.98;4.85;;;19.90;99.90;;;;;;5021893;28;20430;-52
2023/07/12 09:53:46;;;;;;;9.23;4.18;;;19.70;99.90;;;;;;5020763;28;20089;-51
2023/07/12 09:56:38;;;;;;;9.88;3.50;;;19.70;99.90;;;;;;5021997;28;20033;-49
2023/07/12 09:59:17;;;;;;;7.55;2.63;;;19.60;99.90;;;;;;5020883;28;20566;-51
2023/07/12 10:02:01;;;;;;;10.90;3.88;;;19.30;99.90;;;;;;5021738;28;20049;-49
2023/07/12 10:04:47;;;;;;;456.00;426.25;;;19.00;99.90;;;;;;5021106;28;20057;-53
2023/07/12 10:07:19;;;;;;;10.73;4.80;;;18.70;99.90;;;;;;5003130;28;20053;-52
2023/07/12 10:09:47;;;;;;;10.73;4.85;;;18.40;99.90;;;;;;5003167;28;20056;-51
2023/07/12 10:12:46;;;;;;;8.20;4.95;;;18.40;99.90;;;;;;5021787;28;20452;-51
2023/07/12 10:15:14;;;;;;;9.57;4.93;;;18.60;99.90;;;;;;5003663;28;20087;-51
2023/07/12 10:17:43;;;;;;;8.38;4.32;;;18.60;99.90;;;;;;5021870;28;20095;-50
2023/07/12 10:20:23;;;;;;;11.07;4.53;;;18.90;99.90;;;;;;5036613;28;20049;-51
2023/07/12 10:22:52;;;;;;;9.60;4.57;;;19.30;99.90;;;;;;5021074;28;20041;-49
2023/07/12 10:25:28;;;;;;;12.20;4.88;;;19.60;99.90;;;;;;5021464;28;20438;-49
2023/07/12 10:28:00;;;;;;;8.60;4.03;;;19.90;99.90;;;;;;5020557;28;20116;-50
2023/07/12 10:30:27;;;;;;;9.57;4.18;;;20.20;99.90;;;;;;5021218;28;20048;-49
2023/07/12 10:33:16;;;;;;;6.65;3.60;;;20.40;99.90;;;;;;5021280;28;20053;-51
2023/07/12 10:35:58;;;;;;;7.45;3.20;;;20.50;99.90;;;;;;5021395;28;20053;-52
2023/07/12 10:38:25;;;;;;;8.45;3.30;;;20.70;99.90;;;;;;5019733;28;20038;-49
2023/07/12 10:41:05;;;;;;;9.27;3.60;;;21.00;99.90;;;;;;5021270;28;20128;-52
2023/07/12 10:43:49;;;;;;;10.27;3.63;;;20.90;99.90;;;;;;5003182;28;20052;-51
2023/07/12 10:46:36;;;;;;;7.47;3.40;;;20.90;99.90;;;;;;5020544;28;20215;-51
2023/07/12 10:49:14;;;;;;;9.70;3.15;;;20.90;99.90;;;;;;5020028;28;20455;-50
2023/07/12 10:51:42;;;;;;;1014.25;939.08;;;21.00;99.90;;;;;;5020987;28;20385;-51
2023/07/12 10:54:29;;;;;;;8.70;3.30;;;21.00;99.90;;;;;;5019593;28;20041;-51
2023/07/12 10:57:01;;;;;;;9.38;3.00;;;21.20;99.90;;;;;;5020857;28;20083;-51
2023/07/12 10:59:32;;;;;;;954.00;887.65;;;21.50;99.90;;;;;;5020567;28;20038;-53
2023/07/12 11:02:03;;;;;;;9.27;3.08;;;21.80;99.90;;;;;;5020007;28;20072;-52
2023/07/12 11:04:44;;;;;;;8.52;2.95;;;21.80;99.90;;;;;;5020262;28;20060;-49
2023/07/12 11:07:12;;;;;;;8.98;2.60;;;21.70;99.90;;;;;;5019107;28;20207;-51
2023/07/12 11:09:47;;;;;;;8.77;2.88;;;21.50;99.90;;;;;;5020318;28;20045;-52
2023/07/12 11:12:33;;;;;;;7.05;2.72;;;21.30;99.90;;;;;;5020955;28;20045;-50
2023/07/12 11:15:17;;;;;;;7.25;2.28;;;21.50;99.90;;;;;;5020981;28;20065;-52
2023/07/12 11:17:48;;;;;;;7.10;2.43;;;21.70;99.90;;;;;;5020987;28;20057;-51
2023/07/12 11:20:25;;;;;;;8.60;2.47;;;21.80;99.90;;;;;;5020572;28;20791;-51
2023/07/12 11:23:00;;;;;;;6.03;2.17;;;21.80;99.90;;;;;;5020074;28;20087;-50
2023/07/12 11:25:57;;;;;;;4.35;2.00;;;21.60;99.90;;;;;;5020069;28;20045;-53
2023/07/12 11:28:23;;;;;;;6.07;2.03;;;21.40;99.90;;;;;;5020166;28;20095;-50
2023/07/12 11:31:11;;;;;;;4.20;2.00;;;21.20;99.90;;;;;;5003913;28;20104;-51
2023/07/12 11:33:37;;;;;;;6.40;2.00;;;21.30;99.90;;;;;;5017208;28;20049;-50
2023/07/12 11:36:09;;;;;;;3.78;1.95;;;21.60;99.90;;;;;;5026030;28;20171;-53
2023/07/12 11:38:37;;;;;;;4.10;1.70;;;22.10;99.90;;;;;;5026311;28;20049;-54
2023/07/12 11:41:14;;;;;;;6.53;1.85;;;22.40;99.90;;;;;;5026987;28;20136;-49
2023/07/12 11:43:41;;;;;;;9.00;1.63;;;22.70;99.90;;;;;;5041660;28;20096;-55
2023/07/12 11:46:23;;;;;;;7.30;1.95;;;22.70;99.90;;;;;;5045214;28;20080;-51
2023/07/12 11:48:51;;;;;;;3.97;1.60;;;22.70;99.90;;;;;;5030895;28;20052;-53
2023/07/12 11:51:35;;;;;;;16.27;14.95;;;22.70;99.90;;;;;;5049457;28;20266;-54
2023/07/12 11:54:15;;;;;;;5.03;1.55;;;22.80;99.90;;;;;;5036775;28;20076;-51
2023/07/12 11:56:41;;;;;;;5.20;1.70;;;23.00;99.90;;;;;;5037431;28;20180;-50
2023/07/12 11:59:16;;;;;;;4.22;1.20;;;22.90;99.80;;;;;;5038004;28;20494;-52
2023/07/12 12:01:49;;;;;;;5.25;1.83;;;22.90;98.70;;;;;;5036951;28;20045;-50
2023/07/12 12:04:24;;;;;;;2.73;1.33;;;23.00;98.70;;;;;;5036348;28;20052;-47
2023/07/12 12:06:53;;;;;;;6.80;1.67;;;23.10;99.60;;;;;;5033935;28;20045;-52
2023/07/12 12:09:28;;;;;;;3.85;1.08;;;23.30;99.30;;;;;;5026962;28;20136;-49
2023/07/12 12:11:54;;;;;;;2.67;1.10;;;23.50;96.60;;;;;;5035443;28;20346;-48
2023/07/12 12:14:36;;;;;;;4.25;1.38;;;23.60;97.00;;;;;;5021540;28;20061;-48
2023/07/12 12:17:05;;;;;;;2.72;1.33;;;23.80;96.90;;;;;;5040798;28;20103;-48
2023/07/12 12:19:31;;;;;;;4.88;1.23;;;24.00;96.30;;;;;;5028331;28;20882;-52
2023/07/12 12:22:23;;;;;;;4.22;1.58;;;24.00;96.40;;;;;;5045681;28;20080;-49
2023/07/12 12:24:55;;;;;;;6.53;1.63;;;24.00;96.80;;;;;;5045968;28;20033;-51
2023/07/12 12:27:27;;;;;;;4.53;1.52;;;24.00;97.00;;;;;;5046503;28;20055;-47
2023/07/12 12:29:53;;;;;;;5.35;1.73;;;23.80;96.70;;;;;;5046577;28;20483;-49
2023/07/12 12:32:21;;;;;;;4.00;1.40;;;23.80;96.90;;;;;;5045420;28;20087;-48
2023/07/12 12:34:54;;;;;;;4.97;1.45;;;23.80;96.50;;;;;;5046212;28;20115;-48
2023/07/12 12:37:25;;;;;;;4.20;1.10;;;23.70;95.70;;;;;;5041819;28;20072;-48
2023/07/12 12:40:04;;;;;;;3.83;1.30;;;23.60;96.40;;;;;;5045219;28;20233;-50
2023/07/12 12:42:31;;;;;;;4.07;1.00;;;23.60;96.00;;;;;;5026030;28;20040;-49
2023/07/12 12:44:57;;;;;;;3.47;1.15;;;23.70;96.30;;;;;;5042734;28;20037;-49
2023/07/12 12:47:30;;;;;;;4.47;1.05;;;23.80;95.40;;;;;;5042065;28;20045;-49
2023/07/12 12:49:57;;;;;;;3.65;1.10;;;23.80;95.40;;;;;;5025430;28;20508;-50